Time;durP1;ratioP1;P1;durP2;ratioP2;P2;SDS_P1;SDS_P2;PMS_P1;PMS_P2;Temp;Humidity;BMP_temperature;BMP_pressure;BME280_temperature;BME280_humidity;BME280_pressure;Samples;Min_cycle;Max_cycle;Signal;HPM_P1;HPM_P2
2022/07/27 00:02:25;;;;;;;2.45;1.73;;;;;;;;;;5063436;28;20031;-69
2022/07/27 00:04:50;;;;;;;3.92;2.10;;;;;;;;;;5075083;28;20149;-68
2022/07/27 00:07:15;;;;;;;3.80;2.13;;;;;;;;;;5062186;28;20054;-70
2022/07/27 00:09:40;;;;;;;2.13;1.92;;;;;;;;;;5064501;28;20025;-69
2022/07/27 00:12:06;;;;;;;3.45;1.95;;;;;;;;;;5068166;28;20028;-69
2022/07/27 00:14:31;;;;;;;4.45;2.10;;;;;;;;;;5071676;28;20028;-70
2022/07/27 00:16:57;;;;;;;4.30;2.08;;;;;;;;;;5063847;28;20020;-70
2022/07/27 00:19:22;;;;;;;2.30;1.70;;;;;;;;;;5055902;28;20036;-69
2022/07/27 00:21:48;;;;;;;4.22;2.50;;;;;;;;;;5065297;28;20097;-70
2022/07/27 00:24:13;;;;;;;2.65;2.00;;;;;;;;;;5072593;28;20103;-70
2022/07/27 00:26:39;;;;;;;2.55;1.90;;;;;;;;;;5076626;28;20058;-70
2022/07/27 00:29:04;;;;;;;4.22;2.20;;;;;;;;;;5067723;28;20028;-70
2022/07/27 00:31:29;;;;;;;1.90;1.80;;;;;;;;;;5062892;28;20020;-70
2022/07/27 00:33:54;;;;;;;5.72;2.10;;;;;;;;;;5070017;28;20718;-70
2022/07/27 00:36:20;;;;;;;2.13;1.92;;;;;;;;;;5058196;28;20472;-71
2022/07/27 00:38:45;;;;;;;2.05;1.85;;;;;;;;;;5051669;28;20048;-70
2022/07/27 00:41:10;;;;;;;3.25;2.10;;;;;;;;;;5058667;28;20398;-70
2022/07/27 00:43:49;;;;;;;2.80;1.88;;;;;;;;;;5061520;28;20102;-71
2022/07/27 00:46:14;;;;;;;3.20;1.70;;;;;;;;;;5050746;28;20032;-70
2022/07/27 00:48:40;;;;;;;2.83;2.00;;;;;;;;;;5060701;28;20037;-70
2022/07/27 00:51:05;;;;;;;1.75;1.60;;;;;;;;;;5067112;28;20182;-69
2022/07/27 00:53:31;;;;;;;5.28;2.00;;;;;;;;;;5066657;28;20497;-70
2022/07/27 00:55:56;;;;;;;2.13;1.70;;;;;;;;;;5071431;28;20036;-70
2022/07/27 00:58:22;;;;;;;3.67;1.80;;;;;;;;;;5071345;28;20045;-70
2022/07/27 01:00:47;;;;;;;4.13;1.85;;;;;;;;;;5050412;28;20417;-71
2022/07/27 01:03:12;;;;;;;3.95;1.98;;;;;;;;;;5050407;28;20021;-70
2022/07/27 01:05:38;;;;;;;2.47;1.80;;;;;;;;;;5050316;28;20024;-70
2022/07/27 01:08:05;;;;;;;3.65;1.85;;;;;;;;;;5060146;28;20052;-71
2022/07/27 01:10:31;;;;;;;2.63;1.70;;;;;;;;;;5064496;28;20028;-69
2022/07/27 01:12:56;;;;;;;2.10;1.83;;;;;;;;;;5065855;28;20106;-70
2022/07/27 01:15:21;;;;;;;2.03;1.70;;;;;;;;;;5068682;28;20027;-70
2022/07/27 01:17:47;;;;;;;4.10;2.00;;;;;;;;;;5070130;28;20032;-70
2022/07/27 01:20:12;;;;;;;3.40;1.98;;;;;;;;;;5069629;28;20699;-70
2022/07/27 01:22:37;;;;;;;2.72;1.80;;;;;;;;;;5075156;28;20032;-71
2022/07/27 01:25:03;;;;;;;2.50;1.90;;;;;;;;;;5072239;28;20044;-70
2022/07/27 01:27:28;;;;;;;2.63;2.00;;;;;;;;;;5073104;28;20032;-70
2022/07/27 01:29:53;;;;;;;3.20;2.20;;;;;;;;;;5076343;28;20481;-70
2022/07/27 01:32:19;;;;;;;4.32;2.40;;;;;;;;;;5059917;28;20084;-70
2022/07/27 01:34:44;;;;;;;3.35;2.88;;;;;;;;;;5069642;28;20028;-70
2022/07/27 01:37:09;;;;;;;4.20;2.65;;;;;;;;;;5069648;28;20021;-71
2022/07/27 01:39:35;;;;;;;4.05;3.08;;;;;;;;;;5068817;28;20372;-70
2022/07/27 01:42:00;;;;;;;4.43;3.20;;;;;;;;;;5065811;28;20033;-70
2022/07/27 01:44:26;;;;;;;4.13;3.10;;;;;;;;;;5071320;28;20066;-69
2022/07/27 01:46:51;;;;;;;5.50;3.45;;;;;;;;;;5055760;28;20455;-69
2022/07/27 01:49:17;;;;;;;4.93;3.88;;;;;;;;;;5072114;28;20107;-71
2022/07/27 01:51:42;;;;;;;3.97;3.60;;;;;;;;;;5061971;28;20029;-70
2022/07/27 01:54:07;;;;;;;6.03;4.28;;;;;;;;;;5058538;28;20029;-70
2022/07/27 01:56:33;;;;;;;7.82;4.93;;;;;;;;;;5073083;28;20028;-69
2022/07/27 01:58:58;;;;;;;5.13;4.63;;;;;;;;;;5058567;28;20066;-70
2022/07/27 02:01:24;;;;;;;5.95;4.93;;;;;;;;;;5065967;28;20081;-70
2022/07/27 02:03:49;;;;;;;7.55;5.22;;;;;;;;;;5061256;28;20378;-70
2022/07/27 02:06:14;;;;;;;6.28;4.97;;;;;;;;;;5068677;28;20101;-71
2022/07/27 02:08:40;;;;;;;6.72;5.28;;;;;;;;;;5058925;28;20039;-68
2022/07/27 02:13:50;;;;;;;8.70;5.28;;;;;;;;;;5052543;28;20047;-70
2022/07/27 02:16:17;;;;;;;7.53;4.90;;;;;;;;;;5051660;28;20104;-70
2022/07/27 02:18:43;;;;;;;7.68;5.65;;;;;;;;;;5049333;28;20024;-70
2022/07/27 02:21:09;;;;;;;9.13;5.32;;;;;;;;;;5060582;28;20036;-70
2022/07/27 02:23:35;;;;;;;8.88;5.10;;;;;;;;;;5069571;28;20024;-71
2022/07/27 02:26:02;;;;;;;5.97;4.97;;;;;;;;;;5074530;28;20036;-70
2022/07/27 02:28:27;;;;;;;8.55;5.43;;;;;;;;;;5065578;28;20040;-70
2022/07/27 02:30:53;;;;;;;8.43;4.82;;;;;;;;;;5068685;28;20055;-70
2022/07/27 02:33:18;;;;;;;9.98;5.53;;;;;;;;;;5052178;28;20544;-70
2022/07/27 02:35:44;;;;;;;6.65;5.55;;;;;;;;;;5066964;28;20020;-70
2022/07/27 02:38:09;;;;;;;7.25;5.53;;;;;;;;;;5051978;28;20098;-70
2022/07/27 02:40:34;;;;;;;9.30;5.20;;;;;;;;;;5048992;28;20021;-70
2022/07/27 02:42:59;;;;;;;9.10;5.45;;;;;;;;;;5047669;28;20409;-71
2022/07/27 02:45:25;;;;;;;8.40;5.97;;;;;;;;;;5056161;28;20016;-70
2022/07/27 02:47:50;;;;;;;9.93;5.47;;;;;;;;;;5061898;28;20596;-70
2022/07/27 02:50:15;;;;;;;7.85;5.65;;;;;;;;;;5056778;28;20105;-70
2022/07/27 02:52:41;;;;;;;6.20;5.18;;;;;;;;;;5068202;28;20463;-69
2022/07/27 02:55:07;;;;;;;7.72;5.10;;;;;;;;;;5074520;28;20039;-70
2022/07/27 02:57:34;;;;;;;8.82;4.85;;;;;;;;;;5085293;28;20029;-69
2022/07/27 03:00:00;;;;;;;9.15;5.10;;;;;;;;;;5070113;28;20108;-69
2022/07/27 03:02:25;;;;;;;9.05;4.97;;;;;;;;;;5069157;28;20123;-70
2022/07/27 03:04:51;;;;;;;8.68;4.85;;;;;;;;;;5069729;28;20108;-70
2022/07/27 03:07:16;;;;;;;6.90;4.55;;;;;;;;;;5061212;28;20025;-70
2022/07/27 03:09:42;;;;;;;10.88;4.68;;;;;;;;;;5052643;28;20021;-69
2022/07/27 03:12:07;;;;;;;8.23;4.93;;;;;;;;;;5066689;28;20534;-71
2022/07/27 03:14:32;;;;;;;7.70;4.57;;;;;;;;;;5064448;28;20027;-69
2022/07/27 03:16:58;;;;;;;6.75;4.95;;;;;;;;;;5075603;28;20027;-69
2022/07/27 03:19:23;;;;;;;8.30;4.90;;;;;;;;;;5064866;28;20216;-71
2022/07/27 03:21:48;;;;;;;7.70;4.65;;;;;;;;;;5052250;28;20112;-69
2022/07/27 03:24:14;;;;;;;7.15;4.50;;;;;;;;;;5052141;28;20025;-71
2022/07/27 03:26:39;;;;;;;8.15;4.90;;;;;;;;;;5075063;28;20410;-70
2022/07/27 03:29:05;;;;;;;7.57;4.45;;;;;;;;;;5076256;28;20094;-70
2022/07/27 03:31:30;;;;;;;6.88;4.32;;;;;;;;;;5052370;28;20029;-69
2022/07/27 03:33:55;;;;;;;7.03;4.57;;;;;;;;;;5052212;28;20056;-70
2022/07/27 03:36:20;;;;;;;6.60;4.13;;;;;;;;;;5066008;28;20038;-69
2022/07/27 03:38:46;;;;;;;8.93;4.43;;;;;;;;;;5064320;28;20028;-71
2022/07/27 03:41:11;;;;;;;5.35;3.90;;;;;;;;;;5064569;28;20383;-69
2022/07/27 03:43:37;;;;;;;10.55;4.00;;;;;;;;;;5075376;28;20062;-70
2022/07/27 03:46:02;;;;;;;6.68;3.88;;;;;;;;;;5063501;28;20055;-70
2022/07/27 03:48:28;;;;;;;5.25;3.70;;;;;;;;;;5071561;28;20523;-70
2022/07/27 03:50:53;;;;;;;6.18;3.85;;;;;;;;;;5071795;28;20028;-69
2022/07/27 03:53:20;;;;;;;7.65;3.60;;;;;;;;;;5061052;28;20033;-70
2022/07/27 03:55:46;;;;;;;7.68;3.80;;;;;;;;;;5051702;28;20025;-69
2022/07/27 03:58:12;;;;;;;6.68;3.40;;;;;;;;;;5051589;28;20112;-68
2022/07/27 04:00:37;;;;;;;7.80;3.38;;;;;;;;;;5051682;28;20100;-69
2022/07/27 04:03:02;;;;;;;6.38;3.25;;;;;;;;;;5051589;28;20108;-70
2022/07/27 04:05:28;;;;;;;7.55;3.35;;;;;;;;;;5065290;28;20641;-69
2022/07/27 04:07:53;;;;;;;6.97;3.08;;;;;;;;;;5064408;28;20029;-71
2022/07/27 04:10:18;;;;;;;5.28;2.85;;;;;;;;;;5061109;28;20031;-70
2022/07/27 04:12:43;;;;;;;9.45;3.00;;;;;;;;;;5066536;28;20029;-68
2022/07/27 04:15:09;;;;;;;6.65;3.17;;;;;;;;;;5068121;28;20036;-69
2022/07/27 04:17:34;;;;;;;7.38;3.33;;;;;;;;;;5071634;28;20032;-69
2022/07/27 04:20:00;;;;;;;5.13;2.80;;;;;;;;;;5077038;28;20446;-69
2022/07/27 04:22:25;;;;;;;4.72;2.97;;;;;;;;;;5061801;28;20048;-69
2022/07/27 04:24:50;;;;;;;5.82;2.70;;;;;;;;;;5065280;28;20032;-68
2022/07/27 04:27:16;;;;;;;4.72;2.75;;;;;;;;;;5068744;28;20113;-70
2022/07/27 04:29:41;;;;;;;9.77;3.10;;;;;;;;;;5079927;28;20036;-69
2022/07/27 04:32:06;;;;;;;7.32;2.75;;;;;;;;;;5066391;28;20033;-70
2022/07/27 04:34:31;;;;;;;5.72;2.35;;;;;;;;;;5070578;28;20470;-70
2022/07/27 04:36:57;;;;;;;5.07;2.45;;;;;;;;;;5070827;28;20035;-69
2022/07/27 04:39:22;;;;;;;4.80;2.30;;;;;;;;;;5067245;28;20027;-70
2022/07/27 04:41:47;;;;;;;5.38;2.30;;;;;;;;;;5050357;28;20508;-68
2022/07/27 04:44:13;;;;;;;3.25;2.13;;;;;;;;;;5050754;28;20032;-69
2022/07/27 04:46:38;;;;;;;4.70;2.03;;;;;;;;;;5050798;28;20017;-70
2022/07/27 04:49:03;;;;;;;4.72;2.17;;;;;;;;;;5050690;28;20021;-69
2022/07/27 04:51:29;;;;;;;6.60;2.13;;;;;;;;;;5050791;28;20025;-69
2022/07/27 04:53:54;;;;;;;4.80;2.08;;;;;;;;;;5060038;28;20115;-69
2022/07/27 04:56:19;;;;;;;5.60;2.00;;;;;;;;;;5066956;28;20383;-69
2022/07/27 04:58:45;;;;;;;7.07;2.10;;;;;;;;;;5066318;28;20481;-70
2022/07/27 05:01:11;;;;;;;3.85;1.60;;;;;;;;;;5060723;28;20021;-69
2022/07/27 05:03:37;;;;;;;2.63;1.70;;;;;;;;;;5070567;28;20103;-69
2022/07/27 05:06:03;;;;;;;3.00;1.50;;;;;;;;;;5071030;28;20040;-74
2022/07/27 05:08:28;;;;;;;4.63;1.55;;;;;;;;;;5056997;28;20108;-69
2022/07/27 05:10:53;;;;;;;3.80;1.75;;;;;;;;;;5050242;28;20043;-68
2022/07/27 05:13:19;;;;;;;3.15;1.60;;;;;;;;;;5058984;28;20020;-69
2022/07/27 05:15:44;;;;;;;6.70;1.85;;;;;;;;;;5058889;28;20024;-68
2022/07/27 05:18:10;;;;;;;3.85;1.48;;;;;;;;;;5076319;28;20530;-68
2022/07/27 05:20:35;;;;;;;3.03;1.42;;;;;;;;;;5060754;28;20463;-68
2022/07/27 05:23:00;;;;;;;4.55;1.55;;;;;;;;;;5070065;28;20016;-67
2022/07/27 05:25:25;;;;;;;3.92;1.58;;;;;;;;;;5069257;28;20036;-69
2022/07/27 05:27:53;;;;;;;3.85;1.40;;;;;;;;;;5054360;28;20474;-69
2022/07/27 05:30:19;;;;;;;5.13;1.40;;;;;;;;;;5059785;28;20036;-70
2022/07/27 05:32:45;;;;;;;5.03;1.55;;;;;;;;;;5053984;28;20048;-70
2022/07/27 05:35:11;;;;;;;5.95;1.60;;;;;;;;;;5064631;28;20020;-67
2022/07/27 05:37:37;;;;;;;5.07;1.55;;;;;;;;;;5067668;28;20104;-69
2022/07/27 05:40:07;;;;;;;4.03;1.40;;;;;;;;;;5073011;28;20492;-72
2022/07/27 05:42:32;;;;;;;2.78;1.40;;;;;;;;;;5061258;28;20020;-69
2022/07/27 05:44:57;;;;;;;1.77;1.10;;;;;;;;;;5068982;28;20035;-70
2022/07/27 05:47:23;;;;;;;3.78;1.48;;;;;;;;;;5059386;28;20064;-69
2022/07/27 05:49:48;;;;;;;5.75;1.58;;;;;;;;;;5062313;28;20031;-69
2022/07/27 05:52:14;;;;;;;4.60;1.38;;;;;;;;;;5062929;28;20035;-69
2022/07/27 05:54:40;;;;;;;3.70;1.60;;;;;;;;;;5063997;28;20358;-70
2022/07/27 05:57:05;;;;;;;4.38;1.52;;;;;;;;;;5067096;28;20173;-70
2022/07/27 05:59:31;;;;;;;5.90;1.55;;;;;;;;;;5067144;28;20119;-70
2022/07/27 06:01:57;;;;;;;4.68;1.50;;;;;;;;;;5064031;28;20108;-69
2022/07/27 06:04:23;;;;;;;4.10;1.35;;;;;;;;;;5070977;28;20041;-69
2022/07/27 06:09:32;;;;;;;4.18;1.40;;;;;;;;;;5066210;28;20035;-69
2022/07/27 06:11:57;;;;;;;7.88;2.10;;;;;;;;;;5073734;28;20044;-69
2022/07/27 06:14:23;;;;;;;6.32;1.42;;;;;;;;;;5069860;28;20028;-70
2022/07/27 06:16:48;;;;;;;5.00;1.52;;;;;;;;;;5069535;28;20032;-69
2022/07/27 06:19:13;;;;;;;7.95;1.85;;;;;;;;;;5064404;28;20024;-70
2022/07/27 06:21:39;;;;;;;6.50;1.48;;;;;;;;;;5058619;28;20062;-69
2022/07/27 06:24:04;;;;;;;3.97;1.60;;;;;;;;;;5066644;28;20032;-68
2022/07/27 06:26:29;;;;;;;3.88;1.70;;;;;;;;;;5059173;28;20115;-69
2022/07/27 06:28:59;;;;;;;20.80;2.13;;;;;;;;;;5062339;28;20107;-70
2022/07/27 06:31:26;;;;;;;8.02;1.60;;;;;;;;;;5062884;28;20032;-70
2022/07/27 06:33:53;;;;;;;7.20;1.50;;;;;;;;;;5062367;28;20054;-71
2022/07/27 06:36:18;;;;;;;4.88;1.65;;;;;;;;;;5060570;28;20056;-71
2022/07/27 06:38:44;;;;;;;2.95;1.55;;;;;;;;;;5065377;28;20052;-71
2022/07/27 06:41:09;;;;;;;4.95;1.70;;;;;;;;;;5065743;28;20059;-70
2022/07/27 06:43:34;;;;;;;5.15;1.60;;;;;;;;;;5062694;28;20111;-71
2022/07/27 06:46:00;;;;;;;3.38;1.33;;;;;;;;;;5060210;28;20478;-70
2022/07/27 06:48:25;;;;;;;5.30;1.58;;;;;;;;;;5046405;28;20417;-69
2022/07/27 06:50:51;;;;;;;7.68;1.70;;;;;;;;;;5068989;28;20107;-69
2022/07/27 06:53:17;;;;;;;4.15;1.80;;;;;;;;;;5064177;28;20032;-71
2022/07/27 06:55:43;;;;;;;5.47;1.73;;;;;;;;;;5068763;28;20032;-69
2022/07/27 06:58:08;;;;;;;4.90;1.70;;;;;;;;;;5065632;28;20379;-68
2022/07/27 07:00:34;;;;;;;5.88;1.45;;;;;;;;;;5060109;28;20386;-70
2022/07/27 07:03:02;;;;;;;3.72;1.60;;;;;;;;;;5068016;28;20055;-69
2022/07/27 07:05:28;;;;;;;3.33;1.35;;;;;;;;;;5068888;28;20028;-68
2022/07/27 07:07:54;;;;;;;9.13;1.70;;;;;;;;;;5059134;28;20378;-67
2022/07/27 07:10:19;;;;;;;5.35;1.55;;;;;;;;;;5067284;28;20035;-67
2022/07/27 07:12:45;;;;;;;5.80;1.67;;;;;;;;;;5066862;28;20016;-68
2022/07/27 07:15:12;;;;;;;4.70;1.73;;;;;;;;;;5051462;28;20021;-67
2022/07/27 07:17:37;;;;;;;8.10;1.63;;;;;;;;;;5048212;28;20402;-71
2022/07/27 07:20:04;;;;;;;15.68;1.75;;;;;;;;;;5060441;28;20028;-69
2022/07/27 07:22:29;;;;;;;4.93;1.48;;;;;;;;;;5056771;28;20427;-67
2022/07/27 07:24:54;;;;;;;7.38;1.63;;;;;;;;;;5064035;28;20060;-68
2022/07/27 07:27:22;;;;;;;6.07;1.90;;;;;;;;;;5054427;28;20471;-70
2022/07/27 07:29:48;;;;;;;5.93;1.90;;;;;;;;;;5057065;28;20713;-66
2022/07/27 07:32:13;;;;;;;7.50;1.52;;;;;;;;;;5060591;28;20036;-67
2022/07/27 07:34:38;;;;;;;4.97;1.57;;;;;;;;;;5061053;28;20428;-68
2022/07/27 07:37:04;;;;;;;3.70;1.25;;;;;;;;;;5055279;28;20759;-68
2022/07/27 07:39:29;;;;;;;3.85;1.17;;;;;;;;;;5062437;28;20024;-70
2022/07/27 07:41:54;;;;;;;5.47;1.67;;;;;;;;;;5066386;28;20062;-68
2022/07/27 07:44:19;;;;;;;5.55;1.20;;;;;;;;;;5066816;28;20029;-67
2022/07/27 07:46:45;;;;;;;8.53;1.50;;;;;;;;;;5062997;28;20032;-69
2022/07/27 07:49:10;;;;;;;6.65;1.30;;;;;;;;;;5062566;28;20265;-68
2022/07/27 07:51:35;;;;;;;5.20;1.30;;;;;;;;;;5060658;28;20032;-69
2022/07/27 07:54:01;;;;;;;5.93;1.50;;;;;;;;;;5066001;28;20019;-71
2022/07/27 07:56:26;;;;;;;3.17;1.38;;;;;;;;;;5056416;28;20115;-69
2022/07/27 07:58:51;;;;;;;4.68;1.30;;;;;;;;;;5059612;28;20064;-69
2022/07/27 08:01:17;;;;;;;6.93;1.40;;;;;;;;;;5060946;28;20095;-68
2022/07/27 08:03:42;;;;;;;4.07;1.60;;;;;;;;;;5064354;28;20024;-68
2022/07/27 08:06:08;;;;;;;5.47;1.30;;;;;;;;;;5062188;28;20684;-68
2022/07/27 08:08:33;;;;;;;6.55;1.45;;;;;;;;;;5052827;28;20486;-69
2022/07/27 08:10:58;;;;;;;2.90;1.13;;;;;;;;;;5064912;28;20027;-70
2022/07/27 08:13:23;;;;;;;4.07;1.20;;;;;;;;;;5065276;28;20541;-69
2022/07/27 08:15:51;;;;;;;2.05;1.20;;;;;;;;;;5066351;28;20265;-69
2022/07/27 08:18:16;;;;;;;4.85;1.25;;;;;;;;;;5062566;28;20060;-73
2022/07/27 08:20:42;;;;;;;5.60;1.20;;;;;;;;;;5057411;28;20067;-69
2022/07/27 08:23:07;;;;;;;7.55;1.30;;;;;;;;;;5064039;28;20044;-69
2022/07/27 08:25:32;;;;;;;3.83;1.10;;;;;;;;;;5056164;28;20063;-70
2022/07/27 08:27:59;;;;;;;1.93;0.90;;;;;;;;;;5052503;28;20102;-70
2022/07/27 08:30:24;;;;;;;4.00;1.20;;;;;;;;;;5063440;28;20245;-69
2022/07/27 08:32:58;;;;;;;2.25;0.98;;;;;;;;;;5064303;28;20035;-68
2022/07/27 08:35:24;;;;;;;3.92;1.27;;;;;;;;;;5068844;28;20021;-71
2022/07/27 08:37:50;;;;;;;4.43;1.25;;;;;;;;;;5067623;28;20036;-71
2022/07/27 08:40:16;;;;;;;4.60;1.10;;;;;;;;;;5052897;28;20386;-69
2022/07/27 08:42:42;;;;;;;2.25;0.90;;;;;;;;;;5073453;28;20032;-69
2022/07/27 08:45:09;;;;;;;4.57;1.15;;;;;;;;;;5054933;28;20037;-71
2022/07/27 08:47:35;;;;;;;5.95;1.25;;;;;;;;;;5050119;28;20037;-70
2022/07/27 08:50:02;;;;;;;2.58;1.05;;;;;;;;;;5050445;28;20029;-69
2022/07/27 08:52:28;;;;;;;3.75;1.20;;;;;;;;;;5069416;28;20420;-68
2022/07/27 08:54:53;;;;;;;4.47;1.40;;;;;;;;;;5069132;28;20032;-69
2022/07/27 08:57:20;;;;;;;3.80;1.10;;;;;;;;;;5069766;28;20070;-73
2022/07/27 08:59:45;;;;;;;2.63;0.90;;;;;;;;;;5070475;28;20733;-69
2022/07/27 09:02:12;;;;;;;3.28;1.10;;;;;;;;;;5069510;28;20030;-69
2022/07/27 09:04:39;;;;;;;3.35;1.20;;;;;;;;;;5061638;28;20508;-72
2022/07/27 09:07:04;;;;;;;3.95;1.17;;;;;;;;;;5069820;28;20480;-70
2022/07/27 09:09:42;;;;;;;4.07;1.20;;;;;;;;;;5069101;28;20021;-69
2022/07/27 09:12:09;;;;;;;2.45;0.90;;;;;;;;;;5068861;28;20068;-70
2022/07/27 09:14:37;;;;;;;1.75;0.93;;;;;;;;;;5064687;28;20482;-69
2022/07/27 09:17:24;;;;;;;4.10;0.90;;;;;;;;;;5064627;28;20060;-70
2022/07/27 09:19:53;;;;;;;7.30;1.10;;;;;;;;;;5067148;28;20109;-70
2022/07/27 09:22:40;;;;;;;2.15;1.08;;;;;;;;;;5060865;28;20016;-69
2022/07/27 09:25:07;;;;;;;3.08;1.20;;;;;;;;;;5063748;28;20051;-81
2022/07/27 09:27:32;;;;;;;3.50;1.00;;;;;;;;;;5068680;28;20029;-72
2022/07/27 09:30:05;;;;;;;4.63;1.10;;;;;;;;;;5072213;28;20039;-69
2022/07/27 09:32:30;;;;;;;2.83;0.80;;;;;;;;;;5061906;28;20055;-69
2022/07/27 09:34:56;;;;;;;1.50;0.88;;;;;;;;;;5064789;28;20028;-69
2022/07/27 09:37:26;;;;;;;2.42;0.95;;;;;;;;;;5065406;28;20056;-69
2022/07/27 09:40:16;;;;;;;4.35;1.00;;;;;;;;;;5059942;28;20418;-68
2022/07/27 09:42:41;;;;;;;5.27;1.47;;;;;;;;;;5064451;28;20029;-70
2022/07/27 09:45:30;;;;;;;3.10;1.00;;;;;;;;;;5057360;28;20086;-67
2022/07/27 09:48:15;;;;;;;4.45;1.10;;;;;;;;;;5059219;28;20028;-68
2022/07/27 09:50:43;;;;;;;3.40;1.00;;;;;;;;;;5062460;28;20043;-68
2022/07/27 09:53:31;;;;;;;3.60;0.98;;;;;;;;;;5066362;28;20032;-67
2022/07/27 09:56:00;;;;;;;2.10;1.10;;;;;;;;;;5056262;28;20028;-69
2022/07/27 09:58:41;;;;;;;2.00;0.90;;;;;;;;;;5065442;28;20028;-67
2022/07/27 10:01:16;;;;;;;;;;;;;;;;;;5060533;28;20085;-69
2022/07/27 10:03:43;;;;;;;3.63;1.08;;;;;;;;;;5063951;28;20043;-67
2022/07/27 10:06:09;;;;;;;3.28;1.20;;;;;;;;;;5057875;28;20025;-66
2022/07/27 10:08:37;;;;;;;1.55;1.02;;;;;;;;;;5056592;28;20032;-68
2022/07/27 10:11:03;;;;;;;2.05;1.00;;;;;;;;;;5059611;28;20375;-67
2022/07/27 10:13:28;;;;;;;1.75;0.80;;;;;;;;;;5070749;28;20032;-67
2022/07/27 10:15:54;;;;;;;1.77;0.83;;;;;;;;;;5062459;28;20021;-68
2022/07/27 10:18:44;;;;;;;2.70;1.10;;;;;;;;;;5065200;28;20307;-68
2022/07/27 10:21:10;;;;;;;1.58;0.80;;;;;;;;;;5064903;28;20035;-69
2022/07/27 10:23:37;;;;;;;1.75;1.10;;;;;;;;;;5064036;28;20095;-68
2022/07/27 10:26:14;;;;;;;0.93;0.80;;;;;;;;;;5063324;28;20036;-69
2022/07/27 10:29:13;;;;;;;2.28;0.90;;;;;;;;;;5067717;28;20482;-69
2022/07/27 10:32:00;;;;;;;1.55;1.00;;;;;;;;;;5067039;28;20278;-69
2022/07/27 10:34:40;;;;;;;2.08;0.93;;;;;;;;;;5059720;28;20040;-68
2022/07/27 10:37:16;;;;;;;3.30;0.82;;;;;;;;;;5067565;28;20035;-68
2022/07/27 10:39:49;;;;;;;3.58;1.25;;;;;;;;;;5067740;28;20021;-68
2022/07/27 10:42:28;;;;;;;2.40;1.20;;;;;;;;;;5067990;28;20494;-69
2022/07/27 10:45:11;;;;;;;1.63;1.08;;;;;;;;;;5067510;28;20111;-69
2022/07/27 10:47:45;;;;;;;2.45;1.13;;;;;;;;;;5059371;28;20047;-66
2022/07/27 10:50:14;;;;;;;2.25;1.00;;;;;;;;;;5067838;28;20016;-66
2022/07/27 10:52:49;;;;;;;6.35;1.30;;;;;;;;;;5067910;28;20028;-66
2022/07/27 10:55:31;;;;;;;3.53;1.17;;;;;;;;;;5067852;28;20024;-67
2022/07/27 10:58:17;;;;;;;2.25;1.00;;;;;;;;;;5067731;28;20032;-67
2022/07/27 11:00:49;;;;;;;1.77;0.90;;;;;;;;;;5053819;28;20033;-67
2022/07/27 11:03:23;;;;;;;1.70;1.00;;;;;;;;;;5056026;28;20029;-65
2022/07/27 11:06:09;;;;;;;1.65;0.88;;;;;;;;;;5067643;28;20465;-66
2022/07/27 11:08:42;;;;;;;1.77;1.00;;;;;;;;;;5067602;28;20119;-66
2022/07/27 11:11:13;;;;;;;2.90;0.90;;;;;;;;;;5067569;28;20410;-67
2022/07/27 11:13:39;;;;;;;2.90;1.08;;;;;;;;;;5066333;28;20028;-69
2022/07/27 11:16:07;;;;;;;15.13;1.98;;;;;;;;;;5059077;28;20035;-69
2022/07/27 11:18:35;;;;;;;1.70;1.15;;;;;;;;;;5071165;28;20471;-69
2022/07/27 11:21:17;;;;;;;1.75;0.90;;;;;;;;;;5071592;28;20032;-68
2022/07/27 11:23:44;;;;;;;1.20;0.85;;;;;;;;;;5071529;28;20118;-68
2022/07/27 11:26:10;;;;;;;1.42;1.08;;;;;;;;;;5071714;28;20035;-69
2022/07/27 11:28:36;;;;;;;1.65;0.82;;;;;;;;;;5068600;28;20028;-69
2022/07/27 11:31:03;;;;;;;2.47;1.17;;;;;;;;;;5069161;28;20115;-69
2022/07/27 11:33:28;;;;;;;2.03;1.08;;;;;;;;;;5062797;28;20033;-67
2022/07/27 11:35:56;;;;;;;3.25;1.27;;;;;;;;;;5071192;28;20094;-69
2022/07/27 11:38:22;;;;;;;2.28;0.90;;;;;;;;;;5071052;28;20044;-69
2022/07/27 11:40:50;;;;;;;1.83;1.00;;;;;;;;;;5071021;28;20048;-69
2022/07/27 11:43:32;;;;;;;1.38;0.90;;;;;;;;;;5069950;28;20691;-70
2022/07/27 11:46:13;;;;;;;3.55;1.08;;;;;;;;;;5065602;28;20032;-69
2022/07/27 11:49:08;;;;;;;1.95;0.88;;;;;;;;;;5070725;28;20024;-69
2022/07/27 11:51:39;;;;;;;1.15;0.90;;;;;;;;;;5070729;28;20537;-69
2022/07/27 11:54:09;;;;;;;;;;;;;;;;;;5070751;28;20028;-67
2022/07/27 11:56:37;;;;;;;3.45;1.25;;;;;;;;;;5069607;28;20278;-69
2022/07/27 11:59:11;;;;;;;2.45;1.40;;;;;;;;;;5061928;28;20283;-69
2022/07/27 12:01:40;;;;;;;1.27;0.93;;;;;;;;;;5066458;28;20078;-69
2022/07/27 12:04:22;;;;;;;3.80;1.10;;;;;;;;;;5066025;28;20058;-69
2022/07/27 12:07:06;;;;;;;1.80;1.27;;;;;;;;;;5070415;28;20055;-70
2022/07/27 12:09:35;;;;;;;1.27;0.80;;;;;;;;;;5070691;28;20055;-68
2022/07/27 12:12:15;;;;;;;1.75;1.10;;;;;;;;;;5073655;28;20028;-68
2022/07/27 12:14:49;;;;;;;1.42;1.02;;;;;;;;;;5068659;28;20043;-68
2022/07/27 12:17:18;;;;;;;1.33;0.90;;;;;;;;;;5071656;28;20496;-67
2022/07/27 12:19:51;;;;;;;3.40;1.05;;;;;;;;;;5070638;28;20067;-66
2022/07/27 12:22:31;;;;;;;1.63;0.98;;;;;;;;;;5070624;28;20031;-67
2022/07/27 12:24:59;;;;;;;1.55;1.00;;;;;;;;;;5073736;28;20016;-69
2022/07/27 12:27:27;;;;;;;1.48;1.08;;;;;;;;;;5059944;28;20510;-67
2022/07/27 12:30:11;;;;;;;4.07;1.13;;;;;;;;;;5064862;28;20029;-67
2022/07/27 12:32:42;;;;;;;1.45;1.00;;;;;;;;;;5069793;28;20402;-68
2022/07/27 12:35:20;;;;;;;1.73;0.93;;;;;;;;;;5071012;28;20051;-71
2022/07/27 12:37:45;;;;;;;1.00;0.90;;;;;;;;;;5065193;28;20106;-68
2022/07/27 12:40:17;;;;;;;1.52;1.00;;;;;;;;;;5065696;28;20032;-67
2022/07/27 12:42:44;;;;;;;1.50;0.80;;;;;;;;;;5064144;28;20016;-67
2022/07/27 12:45:15;;;;;;;1.85;0.90;;;;;;;;;;5065422;28;20075;-68
2022/07/27 12:47:41;;;;;;;1.55;0.93;;;;;;;;;;5060235;28;20031;-67
2022/07/27 12:50:09;;;;;;;2.63;1.30;;;;;;;;;;5068710;28;20028;-68
2022/07/27 12:52:40;;;;;;;1.60;0.90;;;;;;;;;;5055990;28;20102;-67
2022/07/27 12:55:07;;;;;;;2.47;0.90;;;;;;;;;;5051047;28;20572;-67
2022/07/27 12:57:32;;;;;;;1.50;0.90;;;;;;;;;;5066649;28;20055;-67
2022/07/27 12:59:58;;;;;;;2.08;0.82;;;;;;;;;;5064031;28;20032;-67
2022/07/27 13:02:23;;;;;;;1.55;1.08;;;;;;;;;;5066791;28;20474;-67
2022/07/27 13:04:50;;;;;;;2.60;1.27;;;;;;;;;;5067738;28;20058;-70
2022/07/27 13:07:16;;;;;;;1.25;1.00;;;;;;;;;;5069538;28;20025;-68
2022/07/27 13:09:42;;;;;;;2.15;0.93;;;;;;;;;;5068278;28;20035;-67
2022/07/27 13:12:07;;;;;;;2.35;0.80;;;;;;;;;;5064580;28;20040;-68
2022/07/27 13:14:33;;;;;;;2.13;0.90;;;;;;;;;;5064852;28;20036;-68
2022/07/27 13:16:58;;;;;;;1.70;0.90;;;;;;;;;;5062891;28;20033;-68
2022/07/27 13:19:23;;;;;;;2.83;0.90;;;;;;;;;;5061352;28;20183;-70
2022/07/27 13:21:49;;;;;;;1.00;0.90;;;;;;;;;;5067253;28;20277;-68
2022/07/27 13:24:14;;;;;;;2.25;1.20;;;;;;;;;;5061037;28;20620;-68
2022/07/27 13:26:40;;;;;;;1.98;0.98;;;;;;;;;;5069226;28;20089;-68
2022/07/27 13:29:05;;;;;;;2.40;1.00;;;;;;;;;;5069101;28;20173;-69
2022/07/27 13:31:31;;;;;;;1.23;0.90;;;;;;;;;;5050678;28;20167;-68
2022/07/27 13:33:56;;;;;;;1.30;0.90;;;;;;;;;;5049284;28;20111;-69
2022/07/27 13:36:21;;;;;;;1.00;0.90;;;;;;;;;;5060396;28;20021;-68
2022/07/27 13:38:47;;;;;;;3.17;1.00;;;;;;;;;;5080228;28;20039;-67
2022/07/27 13:41:12;;;;;;;1.40;1.10;;;;;;;;;;5065796;28;20017;-71
2022/07/27 13:43:37;;;;;;;1.75;0.90;;;;;;;;;;5067574;28;20035;-68
2022/07/27 13:46:03;;;;;;;2.50;0.98;;;;;;;;;;5068288;28;20222;-70
2022/07/27 13:48:29;;;;;;;2.42;1.00;;;;;;;;;;5067665;28;20061;-69
2022/07/27 13:50:54;;;;;;;1.80;1.00;;;;;;;;;;5060142;28;20363;-70
2022/07/27 13:53:20;;;;;;;1.05;0.90;;;;;;;;;;5068688;28;20150;-69
2022/07/27 13:55:46;;;;;;;1.80;1.17;;;;;;;;;;5067884;28;20028;-68
2022/07/27 13:58:11;;;;;;;3.03;1.00;;;;;;;;;;5064573;28;20033;-68
2022/07/27 14:00:37;;;;;;;1.13;0.90;;;;;;;;;;5069583;28;20024;-67
2022/07/27 14:03:03;;;;;;;2.63;0.88;;;;;;;;;;5060696;28;20021;-68
2022/07/27 14:05:29;;;;;;;3.88;1.00;;;;;;;;;;5061469;28;20055;-68
2022/07/27 14:07:54;;;;;;;1.88;1.00;;;;;;;;;;5068845;28;20085;-68
2022/07/27 14:10:31;;;;;;;1.58;0.90;;;;;;;;;;5065852;28;20108;-68
2022/07/27 14:13:01;;;;;;;1.23;1.10;;;;;;;;;;5061557;28;20025;-67
2022/07/27 14:15:26;;;;;;;1.40;1.00;;;;;;;;;;5065654;28;20039;-68
2022/07/27 14:17:52;;;;;;;3.05;0.90;;;;;;;;;;5068293;28;20383;-71
2022/07/27 14:20:17;;;;;;;1.25;1.00;;;;;;;;;;5068239;28;20143;-67
2022/07/27 14:22:43;;;;;;;4.22;1.10;;;;;;;;;;5067577;28;20048;-69
2022/07/27 14:25:08;;;;;;;1.20;1.03;;;;;;;;;;5059251;28;20025;-71
2022/07/27 14:27:33;;;;;;;0.98;0.85;;;;;;;;;;5067847;28;20265;-68
2022/07/27 14:29:59;;;;;;;0.90;0.88;;;;;;;;;;5067898;28;20149;-67
2022/07/27 14:32:24;;;;;;;1.57;1.10;;;;;;;;;;5068439;28;20547;-69
2022/07/27 14:34:49;;;;;;;0.90;0.80;;;;;;;;;;5068515;28;20245;-71
2022/07/27 14:37:14;;;;;;;3.40;1.10;;;;;;;;;;5068274;28;20128;-69
2022/07/27 14:39:40;;;;;;;2.53;1.40;;;;;;;;;;5066897;28;20028;-70
2022/07/27 14:42:05;;;;;;;2.95;1.00;;;;;;;;;;5059827;28;20162;-70
2022/07/27 14:44:33;;;;;;;1.50;0.93;;;;;;;;;;5068019;28;20032;-69
2022/07/27 14:46:58;;;;;;;1.45;0.95;;;;;;;;;;5067329;28;20070;-69
2022/07/27 14:49:24;;;;;;;4.17;1.13;;;;;;;;;;5058015;28;20432;-69
2022/07/27 14:51:49;;;;;;;1.83;0.85;;;;;;;;;;5053815;28;20268;-71